createdAt,value
2017-12-01T00:00:36.693Z,14.00
2017-12-01T00:03:04.471Z,13.97
2017-12-01T00:05:32.056Z,13.00
2017-12-01T00:07:59.619Z,14.40
2017-12-01T00:10:27.191Z,12.50
2017-12-01T00:12:54.760Z,15.47
2017-12-01T00:15:22.354Z,16.10
2017-12-01T00:17:49.923Z,14.60
2017-12-01T00:20:17.583Z,15.03
2017-12-01T00:22:45.155Z,14.83
2017-12-01T00:25:12.738Z,14.40
2017-12-01T00:27:40.412Z,14.63
2017-12-01T00:30:07.958Z,14.67
2017-12-01T00:32:35.542Z,16.63
2017-12-01T00:35:03.183Z,28.47
2017-12-01T00:37:30.770Z,16.83
2017-12-01T00:39:58.354Z,17.57
2017-12-01T00:42:25.947Z,14.80
2017-12-01T00:44:53.509Z,16.67
2017-12-01T00:47:22.369Z,14.20
2017-12-01T00:49:50.031Z,13.70
2017-12-01T00:52:17.760Z,15.70
2017-12-01T00:54:45.378Z,13.13
2017-12-01T00:57:14.343Z,17.03
2017-12-01T00:59:42.013Z,18.20
2017-12-01T01:02:09.670Z,16.63
2017-12-01T01:04:37.309Z,16.67
2017-12-01T01:07:05.122Z,16.40
2017-12-01T01:09:32.683Z,15.40
2017-12-01T01:12:00.299Z,14.57
2017-12-01T01:14:27.904Z,15.53
2017-12-01T01:16:55.493Z,14.37
2017-12-01T01:19:23.693Z,14.13
2017-12-01T01:21:51.338Z,17.00
2017-12-01T01:24:18.925Z,17.40
2017-12-01T01:26:47.130Z,18.23
2017-12-01T01:29:14.770Z,17.40
2017-12-01T01:31:42.356Z,16.93
2017-12-01T01:34:09.959Z,17.63
2017-12-01T01:36:37.811Z,15.90
2017-12-01T01:39:05.455Z,16.60
2017-12-01T01:41:33.037Z,18.53
2017-12-01T01:44:00.690Z,16.60
2017-12-01T01:46:28.291Z,19.50
2017-12-01T01:48:55.881Z,17.93
2017-12-01T01:51:23.584Z,19.10
2017-12-01T01:53:51.184Z,18.40
2017-12-01T01:56:18.828Z,16.53
2017-12-01T01:58:46.464Z,17.87
2017-12-01T02:01:14.024Z,17.00
2017-12-01T02:03:41.602Z,18.17
2017-12-01T02:06:09.290Z,18.60
2017-12-01T02:08:36.869Z,15.63
2017-12-01T02:11:04.867Z,13.20
2017-12-01T02:13:32.496Z,14.60
2017-12-01T02:16:00.090Z,15.67
2017-12-01T02:18:27.713Z,16.07
2017-12-01T02:20:55.393Z,21.27
2017-12-01T02:23:22.999Z,15.70
2017-12-01T02:25:50.579Z,15.50
2017-12-01T02:28:21.232Z,20.20
2017-12-01T02:30:48.833Z,15.50
2017-12-01T02:33:16.421Z,16.50
2017-12-01T02:35:44.107Z,18.60
2017-12-01T02:38:11.669Z,17.23
2017-12-01T02:40:39.304Z,16.80
2017-12-01T02:43:07.151Z,16.10
2017-12-01T02:45:34.864Z,17.00
2017-12-01T02:48:02.438Z,17.37
2017-12-01T02:50:30.026Z,16.10
2017-12-01T02:52:57.641Z,14.90
2017-12-01T02:55:25.265Z,16.03
2017-12-01T02:57:52.890Z,15.97
2017-12-01T03:00:20.513Z,14.90
2017-12-01T03:02:48.086Z,14.77
2017-12-01T03:05:15.796Z,15.20
2017-12-01T03:07:43.416Z,16.10
2017-12-01T03:10:11.036Z,16.70
2017-12-01T03:12:39.070Z,15.97
2017-12-01T03:15:07.134Z,15.07
2017-12-01T03:17:34.837Z,15.10
2017-12-01T03:20:02.436Z,15.80
2017-12-01T03:22:30.109Z,16.17
2017-12-01T03:24:57.713Z,17.07
2017-12-01T03:27:25.311Z,17.07
2017-12-01T03:29:52.942Z,14.90
2017-12-01T03:32:20.646Z,16.50
2017-12-01T03:34:48.398Z,14.17
2017-12-01T03:37:16.348Z,14.33
2017-12-01T03:39:43.977Z,12.60
2017-12-01T03:42:11.682Z,18.17
2017-12-01T03:44:39.281Z,18.60
2017-12-01T03:47:06.918Z,18.40
2017-12-01T03:49:34.532Z,17.67
2017-12-01T03:52:02.122Z,21.53
2017-12-01T03:54:30.094Z,16.73
2017-12-01T03:56:57.892Z,14.60
2017-12-01T03:59:25.486Z,15.83
2017-12-01T04:01:53.301Z,16.30
2017-12-01T04:04:20.972Z,16.13
2017-12-01T04:06:48.590Z,17.00
2017-12-01T04:09:16.189Z,19.00
2017-12-01T04:11:43.812Z,18.77
2017-12-01T04:14:11.570Z,15.87
2017-12-01T04:16:39.148Z,17.40
2017-12-01T04:19:07.052Z,15.50
2017-12-01T04:21:34.706Z,17.63
2017-12-01T04:24:02.361Z,16.17
2017-12-01T04:26:30.308Z,18.07
2017-12-01T04:28:59.223Z,17.57
2017-12-01T04:31:27.096Z,16.00
2017-12-01T04:33:54.693Z,14.77
2017-12-01T04:36:22.393Z,16.43
2017-12-01T04:38:50.097Z,15.83
2017-12-01T04:41:17.841Z,13.47
2017-12-01T04:43:45.513Z,13.73
2017-12-01T04:46:13.202Z,12.87
2017-12-01T04:48:40.822Z,14.47
2017-12-01T04:51:08.636Z,13.50
2017-12-01T04:53:36.640Z,12.77
2017-12-01T04:56:04.728Z,13.87
2017-12-01T04:58:32.406Z,12.50
2017-12-01T05:01:00.032Z,14.60
2017-12-01T05:03:28.368Z,12.00
2017-12-01T05:05:56.075Z,12.70
2017-12-01T05:08:24.015Z,11.57
2017-12-01T05:10:51.598Z,13.37
2017-12-01T05:13:19.641Z,14.37
2017-12-01T05:15:47.397Z,50.70
2017-12-01T05:18:15.106Z,17.87
2017-12-01T05:20:42.806Z,10.33
2017-12-01T05:23:10.562Z,13.20
2017-12-01T05:25:38.203Z,14.57
2017-12-01T05:28:05.812Z,21.97
2017-12-01T05:30:33.510Z,23.87
2017-12-01T05:33:01.266Z,28.10
2017-12-01T05:35:28.907Z,30.23
2017-12-01T05:37:56.565Z,30.10
2017-12-01T05:40:24.168Z,35.37
2017-12-01T05:42:51.794Z,31.37
2017-12-01T05:45:19.392Z,26.80
2017-12-01T05:47:47.100Z,14.70
2017-12-01T05:50:14.696Z,19.07
2017-12-01T05:52:42.307Z,17.53
2017-12-01T05:55:10.101Z,20.40
2017-12-01T05:57:37.688Z,23.10
2017-12-01T06:00:05.532Z,16.20
2017-12-01T06:02:33.283Z,17.00
2017-12-01T06:05:01.056Z,17.80
2017-12-01T06:07:28.669Z,18.13
2017-12-01T06:09:56.462Z,15.63
2017-12-01T06:12:24.022Z,14.50
2017-12-01T06:14:51.800Z,15.30
2017-12-01T06:17:19.689Z,30.07
2017-12-01T06:19:47.310Z,17.07
2017-12-01T06:22:15.030Z,12.60
2017-12-01T06:24:42.664Z,12.23
2017-12-01T06:27:10.385Z,14.27
2017-12-01T06:29:37.999Z,10.83
2017-12-01T06:32:05.581Z,12.43
2017-12-01T06:34:33.303Z,13.37
2017-12-01T06:37:00.931Z,12.40
2017-12-01T06:39:28.551Z,19.37
2017-12-01T06:41:56.157Z,14.93
2017-12-01T06:44:24.307Z,12.30
2017-12-01T06:46:51.945Z,10.73
2017-12-01T06:49:19.559Z,13.40
2017-12-01T06:51:47.261Z,21.03
2017-12-01T06:54:14.884Z,19.27
2017-12-01T06:56:42.649Z,19.90
2017-12-01T06:59:10.353Z,16.17
2017-12-01T07:01:38.729Z,13.53
2017-12-01T07:04:06.451Z,18.10
2017-12-01T07:06:34.205Z,16.80
2017-12-01T07:09:02.261Z,20.70
2017-12-01T07:11:30.010Z,17.87
2017-12-01T07:13:58.344Z,19.03
2017-12-01T07:16:25.947Z,19.77
2017-12-01T07:18:53.689Z,58.57
2017-12-01T07:21:21.324Z,61.77
2017-12-01T07:23:49.112Z,38.90
2017-12-01T07:26:28.373Z,37.77
2017-12-01T07:28:55.968Z,34.37
2017-12-01T07:31:23.565Z,37.00
2017-12-01T07:33:51.200Z,31.93
2017-12-01T07:36:20.035Z,28.10
2017-12-01T07:38:47.841Z,23.33
2017-12-01T07:41:17.056Z,28.00
2017-12-01T07:43:45.178Z,27.00
2017-12-01T07:46:13.972Z,23.73
2017-12-01T07:48:41.785Z,22.20
2017-12-01T07:51:09.569Z,20.20
2017-12-01T07:53:37.191Z,21.97
2017-12-01T07:56:05.875Z,22.27
2017-12-01T07:58:34.717Z,23.97
2017-12-01T08:01:02.335Z,17.43
2017-12-01T08:03:31.228Z,20.60
2017-12-01T08:05:58.833Z,20.33
2017-12-01T08:08:26.614Z,36.50
2017-12-01T08:10:54.241Z,22.30
2017-12-01T08:13:22.375Z,26.70
2017-12-01T08:16:01.776Z,27.20
2017-12-01T08:18:41.164Z,23.23
2017-12-01T08:21:09.971Z,21.93
2017-12-01T08:23:49.507Z,18.80
2017-12-01T08:26:17.178Z,20.00
2017-12-01T08:28:44.804Z,20.53
2017-12-01T08:31:12.408Z,17.73
2017-12-01T08:33:40.080Z,17.77
2017-12-01T08:36:07.662Z,17.80
2017-12-01T08:38:35.270Z,17.73
2017-12-01T08:41:02.933Z,20.83
2017-12-01T08:43:30.553Z,20.77
2017-12-01T08:45:58.150Z,21.70
2017-12-01T08:48:25.921Z,16.73
2017-12-01T08:50:53.541Z,15.00
2017-12-01T08:53:21.129Z,14.60
2017-12-01T08:55:48.767Z,13.83
2017-12-01T08:58:16.389Z,15.70
2017-12-01T09:00:44.143Z,15.43
2017-12-01T09:03:12.525Z,43.73
2017-12-01T09:05:40.242Z,27.33
2017-12-01T09:08:07.859Z,22.87
2017-12-01T09:10:36.117Z,15.60
2017-12-01T09:13:03.839Z,16.17
2017-12-01T09:15:31.539Z,17.07
2017-12-01T09:17:59.196Z,15.30
2017-12-01T09:20:27.083Z,22.37
2017-12-01T09:22:54.704Z,23.40
2017-12-01T09:25:22.301Z,16.50
2017-12-01T09:27:49.925Z,15.00
2017-12-01T09:30:18.027Z,17.00
2017-12-01T09:32:45.656Z,15.37
2017-12-01T09:35:13.499Z,12.67
2017-12-01T09:37:41.139Z,12.77
2017-12-01T09:40:08.732Z,13.27
2017-12-01T09:42:36.370Z,13.70
2017-12-01T09:45:04.397Z,14.67
2017-12-01T09:47:32.033Z,14.00
2017-12-01T09:49:59.643Z,14.17
2017-12-01T09:52:27.293Z,13.23
2017-12-01T09:54:54.901Z,17.73
2017-12-01T09:57:22.959Z,23.00
2017-12-01T09:59:50.551Z,14.10
2017-12-01T10:02:18.179Z,11.30
2017-12-01T10:04:45.790Z,13.37
2017-12-01T10:07:13.617Z,13.30
2017-12-01T10:09:41.270Z,12.50
2017-12-01T10:12:09.102Z,14.30
2017-12-01T10:14:36.737Z,15.23
2017-12-01T10:17:04.366Z,14.10
2017-12-01T10:22:23.335Z,13.67
2017-12-01T10:24:52.900Z,16.80
2017-12-01T10:27:20.555Z,31.80
2017-12-01T10:29:48.237Z,19.63
2017-12-01T10:32:16.020Z,32.03
2017-12-01T10:34:43.709Z,13.90
2017-12-01T10:37:11.585Z,14.27
2017-12-01T10:39:39.259Z,14.47
2017-12-01T10:42:06.870Z,12.47
2017-12-01T10:44:34.498Z,15.33
2017-12-01T10:47:02.080Z,14.57
2017-12-01T10:49:29.711Z,14.70
2017-12-01T10:51:57.331Z,12.63
2017-12-01T10:54:26.775Z,12.20
2017-12-01T10:56:54.361Z,12.17
2017-12-01T10:59:22.100Z,16.83
2017-12-01T11:01:49.732Z,17.13
2017-12-01T11:04:17.276Z,16.00
2017-12-01T11:06:46.424Z,15.37
2017-12-01T11:09:18.220Z,14.87
2017-12-01T11:11:46.083Z,13.13
2017-12-01T11:14:13.687Z,12.00
2017-12-01T11:16:42.614Z,13.20
2017-12-01T11:19:10.297Z,11.33
2017-12-01T11:21:38.077Z,11.27
2017-12-01T11:24:05.972Z,11.13
2017-12-01T11:26:33.575Z,12.40
2017-12-01T11:29:01.159Z,12.27
2017-12-01T11:31:28.985Z,11.03
2017-12-01T11:33:56.851Z,12.50
2017-12-01T11:36:24.663Z,15.03
2017-12-01T11:38:52.254Z,13.80
2017-12-01T11:41:20.008Z,15.70
2017-12-01T11:43:47.636Z,10.10
2017-12-01T11:46:15.209Z,9.43
2017-12-01T11:48:43.108Z,8.50
2017-12-01T11:51:12.673Z,9.97
2017-12-01T11:53:40.244Z,8.70
2017-12-01T11:56:07.882Z,9.93
2017-12-01T11:58:35.429Z,10.43
2017-12-01T12:01:02.985Z,10.07
2017-12-01T12:03:30.976Z,10.03
2017-12-01T12:05:58.544Z,16.77
2017-12-01T12:08:27.114Z,20.13
2017-12-01T12:10:54.817Z,15.40
2017-12-01T12:13:22.417Z,10.07
2017-12-01T12:15:50.063Z,13.23
2017-12-01T12:18:17.655Z,14.23
2017-12-01T12:20:45.253Z,16.03
2017-12-01T12:23:12.959Z,13.87
2017-12-01T12:25:40.548Z,18.67
2017-12-01T12:28:08.102Z,47.53
2017-12-01T12:30:35.706Z,43.70
2017-12-01T12:33:03.327Z,29.57
2017-12-01T12:35:30.881Z,27.47
2017-12-01T12:37:58.473Z,14.93
2017-12-01T12:40:26.059Z,17.17
2017-12-01T12:42:53.646Z,13.33
2017-12-01T12:45:21.254Z,14.17
2017-12-01T12:47:48.824Z,13.93
2017-12-01T12:50:16.431Z,8.00
2017-12-01T12:52:44.138Z,7.70
2017-12-01T12:55:11.947Z,7.80
2017-12-01T12:57:39.509Z,7.13
2017-12-01T13:00:07.297Z,7.43
2017-12-01T13:02:34.917Z,8.70
2017-12-01T13:05:02.500Z,8.37
2017-12-01T13:07:30.141Z,8.67
2017-12-01T13:09:57.709Z,9.13
2017-12-01T13:12:25.427Z,8.77
2017-12-01T13:14:53.020Z,8.90
2017-12-01T13:17:20.627Z,8.47
2017-12-01T13:19:48.234Z,11.30
2017-12-01T13:22:16.070Z,11.27
2017-12-01T13:24:43.693Z,9.90
2017-12-01T13:27:11.410Z,12.03
2017-12-01T13:29:39.180Z,14.57
2017-12-01T13:32:06.830Z,14.27
2017-12-01T13:34:34.465Z,13.87
2017-12-01T13:37:02.066Z,12.10
2017-12-01T13:39:29.715Z,15.53
2017-12-01T13:44:48.102Z,18.10
2017-12-01T13:47:15.923Z,19.63
2017-12-01T13:49:43.621Z,17.93
2017-12-01T13:52:11.508Z,17.77
2017-12-01T13:54:39.382Z,15.20
2017-12-01T13:57:07.501Z,13.07
2017-12-01T13:59:36.575Z,9.73
2017-12-01T14:02:04.616Z,9.63
2017-12-01T14:04:32.540Z,10.40
2017-12-01T14:09:32.080Z,12.13
2017-12-01T14:11:59.796Z,12.30
2017-12-01T14:14:27.545Z,10.70
2017-12-01T14:16:55.230Z,14.80
2017-12-01T14:19:23.359Z,12.97
2017-12-01T14:21:51.042Z,10.97
2017-12-01T14:24:18.633Z,10.30
2017-12-01T14:26:46.264Z,10.00
2017-12-01T14:29:14.125Z,9.43
2017-12-01T14:31:41.757Z,8.87
2017-12-01T14:34:09.412Z,8.60
2017-12-01T14:36:37.305Z,9.30
2017-12-01T14:39:05.192Z,8.40
2017-12-01T14:41:33.109Z,10.07
2017-12-01T14:44:00.716Z,15.10
2017-12-01T14:46:28.357Z,13.70
2017-12-01T14:48:56.073Z,12.27
2017-12-01T14:51:23.801Z,9.93
2017-12-01T14:53:51.435Z,8.30
2017-12-01T14:56:19.371Z,9.27
2017-12-01T14:58:47.017Z,11.30
2017-12-01T15:01:14.664Z,10.90
2017-12-01T15:03:42.289Z,12.97
2017-12-01T15:06:10.567Z,13.30
2017-12-01T15:08:38.161Z,12.90
2017-12-01T15:11:05.914Z,10.93
2017-12-01T15:13:33.569Z,10.27
2017-12-01T15:16:01.135Z,8.80
2017-12-01T15:18:28.842Z,9.17
2017-12-01T15:20:56.476Z,8.97
2017-12-01T15:23:24.088Z,6.93
2017-12-01T15:25:52.596Z,8.70
2017-12-01T15:28:20.295Z,6.47
2017-12-01T15:30:48.569Z,7.00
2017-12-01T15:33:17.052Z,7.83
2017-12-01T15:35:46.146Z,8.87
2017-12-01T15:38:13.771Z,9.77
2017-12-01T15:40:41.418Z,8.90
2017-12-01T15:43:09.207Z,14.57
2017-12-01T15:45:36.878Z,17.80
2017-12-01T15:48:05.957Z,13.53
2017-12-01T15:50:33.818Z,12.90
2017-12-01T15:53:01.439Z,12.37
2017-12-01T15:55:29.326Z,15.57
2017-12-01T15:57:57.035Z,15.53
2017-12-01T16:00:24.696Z,14.07
2017-12-01T16:02:52.331Z,17.23
2017-12-01T16:05:20.060Z,15.20
2017-12-01T16:07:47.674Z,16.13
2017-12-01T16:10:15.441Z,14.47
2017-12-01T16:12:43.180Z,13.20
2017-12-01T16:15:11.767Z,12.73
2017-12-01T16:17:39.469Z,13.13
2017-12-01T16:20:07.211Z,12.60
2017-12-01T16:22:34.840Z,21.00
2017-12-01T16:25:02.468Z,24.20
2017-12-01T16:27:30.117Z,19.27
2017-12-01T16:29:57.830Z,18.80
2017-12-01T16:32:25.407Z,16.00
2017-12-01T16:34:53.086Z,17.53
2017-12-01T16:37:20.696Z,15.90
2017-12-01T16:39:48.282Z,15.17
2017-12-01T16:42:15.964Z,15.00
2017-12-01T16:44:43.617Z,18.33
2017-12-01T16:47:11.407Z,21.90
2017-12-01T16:49:39.110Z,27.17
2017-12-01T16:52:06.764Z,24.20
2017-12-01T16:54:34.405Z,21.80
2017-12-01T16:57:02.040Z,22.77
2017-12-01T16:59:29.623Z,24.40
2017-12-01T17:01:57.242Z,24.87
2017-12-01T17:04:24.884Z,25.97
2017-12-01T17:06:52.527Z,24.40
2017-12-01T17:09:20.127Z,26.50
2017-12-01T17:11:47.814Z,32.33
2017-12-01T17:14:15.494Z,36.70
2017-12-01T17:16:43.149Z,46.70
2017-12-01T17:19:11.433Z,42.83
2017-12-01T17:21:39.155Z,29.40
2017-12-01T17:24:06.790Z,22.00
2017-12-01T17:26:34.659Z,27.67
2017-12-01T17:29:02.340Z,30.37
2017-12-01T17:31:29.937Z,38.07
2017-12-01T17:33:57.620Z,37.43
2017-12-01T17:36:25.355Z,50.47
2017-12-01T17:38:53.045Z,51.30
2017-12-01T17:41:20.755Z,46.70
2017-12-01T17:43:48.435Z,47.50
2017-12-01T17:46:16.055Z,28.97
2017-12-01T17:48:43.725Z,26.20
2017-12-01T17:51:11.959Z,16.60
2017-12-01T17:53:39.590Z,22.77
2017-12-01T17:56:07.259Z,17.57
2017-12-01T17:58:34.957Z,18.03
2017-12-01T18:01:02.637Z,30.10
2017-12-01T18:03:30.343Z,26.13
2017-12-01T18:05:57.979Z,29.90
2017-12-01T18:08:25.605Z,28.13
2017-12-01T18:10:58.113Z,27.30
2017-12-01T18:13:26.658Z,33.20
2017-12-01T18:15:54.310Z,28.97
2017-12-01T18:18:21.998Z,27.17
2017-12-01T18:20:49.616Z,25.33
2017-12-01T18:23:17.200Z,26.50
2017-12-01T18:25:45.681Z,16.37
2017-12-01T18:28:13.330Z,25.33
2017-12-01T18:30:40.949Z,25.33
2017-12-01T18:33:09.000Z,26.43
2017-12-01T18:35:36.599Z,25.90
2017-12-01T18:38:04.192Z,27.70
2017-12-01T18:40:31.837Z,28.87
2017-12-01T18:42:59.477Z,16.60
2017-12-01T18:45:27.172Z,16.50
2017-12-01T18:47:54.787Z,14.87
2017-12-01T18:50:22.463Z,24.07
2017-12-01T18:52:50.040Z,25.40
2017-12-01T18:55:17.770Z,20.33
2017-12-01T18:57:45.379Z,15.20
2017-12-01T19:00:12.987Z,14.27
2017-12-01T19:02:40.790Z,16.83
2017-12-01T19:05:08.414Z,20.30
2017-12-01T19:07:36.183Z,22.43
2017-12-01T19:10:03.888Z,19.60
2017-12-01T19:12:31.839Z,17.23
2017-12-01T19:15:00.590Z,18.10
2017-12-01T19:17:28.353Z,16.67
2017-12-01T19:19:55.998Z,16.73
2017-12-01T19:22:23.634Z,15.13
2017-12-01T19:24:51.446Z,16.57
2017-12-01T19:27:19.366Z,14.40
2017-12-01T19:29:47.013Z,17.37
2017-12-01T19:35:04.638Z,17.40
2017-12-01T19:37:32.270Z,15.77
2017-12-01T19:39:59.871Z,17.40
2017-12-01T19:42:27.502Z,13.37
2017-12-01T19:44:55.131Z,14.80
2017-12-01T19:47:22.810Z,17.10
2017-12-01T19:49:50.484Z,16.80
2017-12-01T19:52:18.228Z,17.37
2017-12-01T19:54:46.679Z,21.57
2017-12-01T19:57:14.406Z,24.03
2017-12-01T19:59:42.556Z,17.37
2017-12-01T20:02:10.257Z,16.37
2017-12-01T20:04:37.946Z,21.87
2017-12-01T20:07:05.648Z,21.93
2017-12-01T20:09:33.464Z,25.30
2017-12-01T20:12:01.204Z,21.33
2017-12-01T20:14:28.780Z,21.53
2017-12-01T20:16:56.477Z,20.03
2017-12-01T20:19:24.108Z,19.80
2017-12-01T20:21:51.698Z,21.03
2017-12-01T20:24:19.668Z,31.40
2017-12-01T20:26:47.332Z,25.73
2017-12-01T20:29:14.969Z,25.00
2017-12-01T20:31:42.739Z,25.47
2017-12-01T20:34:10.635Z,20.00
2017-12-01T20:36:38.362Z,17.13
2017-12-01T20:39:06.297Z,17.00
2017-12-01T20:41:34.242Z,17.13
2017-12-01T20:44:01.830Z,17.10
2017-12-01T20:46:29.599Z,17.07
2017-12-01T20:48:57.222Z,19.57
2017-12-01T20:51:24.750Z,23.00
2017-12-01T20:53:52.325Z,22.30
2017-12-01T20:56:19.975Z,20.00
2017-12-01T20:58:47.570Z,19.70
2017-12-01T21:01:15.135Z,17.17
2017-12-01T21:03:42.812Z,13.10
2017-12-01T21:06:10.399Z,14.80
2017-12-01T21:08:38.026Z,11.60
2017-12-01T21:11:05.706Z,13.00
2017-12-01T21:13:33.337Z,16.53
2017-12-01T21:16:01.048Z,14.80
2017-12-01T21:18:28.784Z,16.67
2017-12-01T21:20:56.416Z,14.90
2017-12-01T21:23:24.196Z,15.97
2017-12-01T21:25:51.877Z,15.07
2017-12-01T21:28:19.543Z,11.70
2017-12-01T21:30:47.247Z,12.53
2017-12-01T21:33:14.920Z,14.70
2017-12-01T21:35:42.579Z,15.43
2017-12-01T21:38:10.373Z,18.30
2017-12-01T21:40:38.066Z,16.30
2017-12-01T21:43:05.772Z,16.43
2017-12-01T21:45:33.460Z,14.77
2017-12-01T21:48:01.099Z,16.00
2017-12-01T21:50:28.697Z,14.30
2017-12-01T21:52:57.016Z,13.90
2017-12-01T21:55:24.742Z,12.03
2017-12-01T21:57:54.300Z,15.50
2017-12-01T22:00:21.920Z,14.20
2017-12-01T22:02:49.508Z,14.43
2017-12-01T22:05:17.094Z,15.23
2017-12-01T22:07:44.687Z,15.03
2017-12-01T22:10:12.420Z,13.50
2017-12-01T22:12:40.256Z,15.13
2017-12-01T22:15:08.046Z,15.50
2017-12-01T22:17:35.680Z,14.60
2017-12-01T22:20:03.371Z,12.80
2017-12-01T22:22:30.964Z,14.20
2017-12-01T22:24:58.575Z,15.30
2017-12-01T22:27:26.526Z,13.50
2017-12-01T22:29:54.317Z,14.43
2017-12-01T22:32:22.076Z,12.87
2017-12-01T22:34:49.687Z,13.23
2017-12-01T22:37:17.353Z,12.03
2017-12-01T22:39:45.063Z,13.73
2017-12-01T22:42:12.697Z,12.37
2017-12-01T22:44:40.329Z,12.10
2017-12-01T22:47:08.625Z,15.53
2017-12-01T22:49:36.237Z,13.20
2017-12-01T22:52:03.984Z,12.20
2017-12-01T22:54:31.676Z,14.17
2017-12-01T22:56:59.261Z,13.03
2017-12-01T22:59:26.883Z,16.23
2017-12-01T23:01:54.503Z,16.40
2017-12-01T23:04:22.114Z,17.43
2017-12-01T23:06:49.760Z,15.20
2017-12-01T23:09:17.361Z,15.50
2017-12-01T23:11:44.944Z,13.53
2017-12-01T23:14:12.573Z,13.20
2017-12-01T23:16:40.265Z,14.77
2017-12-01T23:19:08.776Z,16.40
2017-12-01T23:21:36.442Z,19.10
2017-12-01T23:24:04.210Z,17.03
2017-12-01T23:26:34.797Z,18.00
2017-12-01T23:29:03.213Z,19.83
2017-12-01T23:31:31.015Z,20.13
2017-12-01T23:33:58.693Z,17.30
2017-12-01T23:36:26.337Z,14.30
2017-12-01T23:38:53.928Z,15.00
2017-12-01T23:41:21.522Z,15.83
2017-12-01T23:43:49.149Z,13.77
2017-12-01T23:46:16.739Z,17.67
2017-12-01T23:48:44.373Z,16.60
2017-12-01T23:51:12.031Z,17.60
2017-12-01T23:53:39.663Z,18.60
2017-12-01T23:56:07.340Z,15.23
2017-12-01T23:58:34.935Z,14.67
